createdAt,value
2022-10-07T00:01:07.221Z,12.32
2022-10-07T00:03:36.152Z,11.48
2022-10-07T00:06:19.472Z,11.90
2022-10-07T00:08:52.360Z,12.77
2022-10-07T00:11:21.530Z,13.43
2022-10-07T00:13:54.339Z,12.20
2022-10-07T00:16:26.707Z,12.40
2022-10-07T00:18:57.768Z,11.43
2022-10-07T00:21:28.161Z,13.35
2022-10-07T00:23:56.340Z,13.50
2022-10-07T00:26:27.650Z,13.30
2022-10-07T00:28:56.243Z,11.63
2022-10-07T00:31:27.491Z,13.77
2022-10-07T00:33:57.096Z,13.07
2022-10-07T00:36:28.057Z,11.75
2022-10-07T00:38:58.254Z,13.98
2022-10-07T00:41:41.711Z,13.68
2022-10-07T00:44:44.257Z,15.65
2022-10-07T00:47:30.476Z,13.50
2022-10-07T00:50:08.690Z,14.25
2022-10-07T00:52:58.910Z,13.65
2022-10-07T00:55:29.461Z,14.40
2022-10-07T00:58:02.830Z,11.43
2022-10-07T01:00:31.347Z,14.32
2022-10-07T01:03:00.147Z,12.40
2022-10-07T01:05:27.893Z,11.85
2022-10-07T01:07:59.096Z,18.83
2022-10-07T01:10:35.740Z,14.70
2022-10-07T01:13:29.347Z,14.52
2022-10-07T01:16:23.266Z,16.40
2022-10-07T01:19:19.230Z,15.30
2022-10-07T01:21:47.119Z,14.20
2022-10-07T01:24:24.847Z,13.50
2022-10-07T01:27:01.890Z,15.55
2022-10-07T01:29:42.159Z,17.70
2022-10-07T01:32:17.426Z,17.58
2022-10-07T01:34:47.090Z,14.48
2022-10-07T01:37:19.775Z,19.85
2022-10-07T01:39:52.260Z,16.02
2022-10-07T01:42:21.456Z,19.40
2022-10-07T01:44:54.707Z,16.12
2022-10-07T01:47:22.983Z,13.85
2022-10-07T01:49:50.731Z,17.00
2022-10-07T01:52:31.935Z,13.30
2022-10-07T01:55:12.109Z,16.05
2022-10-07T01:58:03.094Z,15.18
2022-10-07T02:00:38.218Z,15.35
2022-10-07T02:03:35.585Z,14.40
2022-10-07T02:06:06.400Z,12.77
2022-10-07T02:11:16.698Z,17.70
2022-10-07T02:14:36.918Z,16.17
2022-10-07T02:17:16.651Z,15.93
2022-10-07T02:19:53.451Z,16.12
2022-10-07T02:22:26.035Z,16.62
2022-10-07T02:24:58.975Z,15.05
2022-10-07T02:27:32.877Z,15.55
2022-10-07T02:30:08.910Z,18.00
2022-10-07T02:32:41.397Z,17.23
2022-10-07T02:35:18.941Z,14.30
2022-10-07T02:37:51.047Z,16.65
2022-10-07T02:40:19.530Z,13.55
2022-10-07T02:42:56.763Z,18.25
2022-10-07T02:46:13.244Z,14.43
2022-10-07T02:49:00.302Z,14.18
2022-10-07T02:51:37.721Z,13.18
2022-10-07T02:54:05.820Z,14.80
2022-10-07T02:56:37.805Z,15.77
2022-10-07T02:59:08.762Z,16.80
2022-10-07T03:04:11.637Z,14.40
2022-10-07T03:06:42.142Z,17.05
2022-10-07T03:09:11.265Z,14.77
2022-10-07T03:11:41.307Z,20.12
2022-10-07T03:14:10.244Z,19.77
2022-10-07T03:16:37.890Z,18.42
2022-10-07T03:19:06.080Z,20.45
2022-10-07T03:21:34.441Z,13.55
2022-10-07T03:24:04.894Z,18.08
2022-10-07T03:26:35.499Z,17.27
2022-10-07T03:29:05.433Z,14.75
2022-10-07T03:31:33.607Z,23.65
2022-10-07T03:34:01.752Z,18.17
2022-10-07T03:36:29.876Z,16.02
2022-10-07T03:38:58.585Z,15.10
2022-10-07T03:41:26.780Z,19.42
2022-10-07T03:43:59.163Z,17.50
2022-10-07T03:46:27.375Z,17.50
2022-10-07T03:48:55.358Z,17.50
2022-10-07T03:51:23.911Z,13.60
2022-10-07T03:53:54.772Z,14.27
2022-10-07T03:56:22.673Z,15.23
2022-10-07T03:58:50.643Z,18.77
2022-10-07T04:01:18.688Z,14.10
2022-10-07T04:03:47.553Z,16.30
2022-10-07T04:06:15.614Z,22.37
2022-10-07T04:08:44.928Z,16.00
2022-10-07T04:11:13.612Z,17.33
2022-10-07T04:13:41.659Z,18.87
2022-10-07T04:16:10.446Z,13.70
2022-10-07T04:18:42.005Z,13.00
2022-10-07T04:21:11.465Z,12.93
2022-10-07T04:23:41.288Z,14.30
2022-10-07T04:26:10.748Z,13.38
2022-10-07T04:28:39.587Z,17.02
2022-10-07T04:31:09.519Z,15.25
2022-10-07T04:33:42.063Z,17.75
2022-10-07T04:36:12.887Z,15.32
2022-10-07T04:38:42.751Z,17.25
2022-10-07T04:41:10.986Z,14.52
2022-10-07T04:43:39.120Z,13.35
2022-10-07T04:46:09.289Z,14.57
2022-10-07T04:48:38.509Z,12.57
2022-10-07T04:51:08.866Z,18.17
2022-10-07T04:53:38.813Z,14.32
2022-10-07T04:56:08.558Z,15.70
2022-10-07T04:58:36.768Z,14.20
2022-10-07T05:01:09.725Z,16.92
2022-10-07T05:03:39.756Z,14.68
2022-10-07T05:06:08.683Z,14.38
2022-10-07T05:08:37.312Z,14.30
2022-10-07T05:11:06.235Z,13.68
2022-10-07T05:13:38.517Z,12.98
2022-10-07T05:16:09.592Z,15.18
2022-10-07T05:18:39.453Z,13.75
2022-10-07T05:21:08.865Z,15.38
2022-10-07T05:23:37.167Z,18.50
2022-10-07T05:26:09.665Z,16.33
2022-10-07T05:28:39.387Z,12.37
2022-10-07T05:31:13.181Z,18.75
2022-10-07T05:33:41.548Z,14.48
2022-10-07T05:36:12.208Z,16.73
2022-10-07T05:38:40.157Z,16.77
2022-10-07T05:41:11.123Z,16.23
2022-10-07T05:43:43.145Z,15.07
2022-10-07T05:46:14.104Z,15.30
2022-10-07T05:48:46.419Z,13.10
2022-10-07T05:51:14.941Z,14.00
2022-10-07T05:53:43.152Z,16.85
2022-10-07T05:56:14.126Z,13.82
2022-10-07T05:58:42.496Z,14.25
2022-10-07T06:01:19.700Z,21.65
2022-10-07T06:03:54.250Z,14.23
2022-10-07T06:06:24.103Z,14.20
2022-10-07T06:08:53.731Z,19.77
2022-10-07T06:11:40.500Z,15.52
2022-10-07T06:14:09.019Z,13.30
2022-10-07T06:16:36.886Z,15.38
2022-10-07T06:19:04.756Z,13.70
2022-10-07T06:21:32.740Z,12.35
2022-10-07T06:24:00.932Z,15.07
2022-10-07T06:26:29.212Z,18.25
2022-10-07T06:28:57.160Z,13.07
2022-10-07T06:31:26.023Z,19.02
2022-10-07T06:33:54.435Z,17.23
2022-10-07T06:36:23.509Z,16.75
2022-10-07T06:38:54.315Z,15.52
2022-10-07T06:41:23.693Z,12.60
2022-10-07T06:43:56.585Z,16.58
2022-10-07T06:46:26.659Z,14.07
2022-10-07T06:48:56.063Z,18.33
2022-10-07T06:51:24.630Z,12.20
2022-10-07T06:53:57.929Z,15.13
2022-10-07T06:56:26.653Z,14.85
2022-10-07T06:58:54.299Z,16.55
2022-10-07T07:01:23.320Z,23.00
2022-10-07T07:03:51.646Z,12.43
2022-10-07T07:06:19.275Z,27.13
2022-10-07T07:08:50.149Z,13.90
2022-10-07T07:11:37.881Z,13.18
2022-10-07T07:14:08.989Z,13.80
2022-10-07T07:16:38.121Z,9.88
2022-10-07T07:19:10.789Z,9.48
2022-10-07T07:21:41.042Z,12.55
2022-10-07T07:24:10.276Z,11.02
2022-10-07T07:26:40.231Z,11.82
2022-10-07T07:29:12.290Z,11.15
2022-10-07T07:31:41.771Z,12.95
2022-10-07T07:34:11.742Z,13.13
2022-10-07T07:36:44.883Z,10.05
2022-10-07T07:39:16.285Z,11.82
2022-10-07T07:44:17.712Z,9.32
2022-10-07T07:46:49.186Z,9.03
2022-10-07T07:49:17.960Z,9.48
2022-10-07T07:51:46.170Z,10.18
2022-10-07T07:54:15.842Z,11.02
2022-10-07T07:56:44.938Z,10.77
2022-10-07T07:59:12.802Z,11.18
2022-10-07T08:01:41.223Z,10.95
2022-10-07T08:04:10.263Z,8.57
2022-10-07T08:06:38.578Z,8.73
2022-10-07T08:09:07.020Z,7.50
2022-10-07T08:11:36.431Z,9.80
2022-10-07T08:14:04.478Z,10.00
2022-10-07T08:16:32.642Z,10.00
2022-10-07T08:19:00.822Z,10.00
2022-10-07T08:21:35.515Z,7.72
2022-10-07T08:24:05.674Z,7.62
2022-10-07T08:26:34.871Z,8.30
2022-10-07T08:29:04.106Z,9.95
2022-10-07T08:31:32.186Z,6.62
2022-10-07T08:34:02.915Z,15.23
2022-10-07T08:36:33.080Z,7.85
2022-10-07T08:39:02.080Z,9.73
2022-10-07T08:41:41.240Z,6.97
2022-10-07T08:44:18.322Z,5.78
2022-10-07T08:47:38.661Z,8.77
2022-10-07T08:50:18.888Z,8.73
2022-10-07T08:53:01.740Z,6.12
2022-10-07T08:56:08.808Z,6.10
2022-10-07T08:59:02.202Z,4.18
2022-10-07T09:01:36.392Z,5.05
2022-10-07T09:04:49.004Z,6.45
2022-10-07T09:07:27.641Z,6.47
2022-10-07T09:10:01.705Z,7.65
2022-10-07T09:12:51.566Z,6.62
2022-10-07T09:15:27.239Z,5.30
2022-10-07T09:18:02.104Z,8.75
2022-10-07T09:20:36.797Z,5.85
2022-10-07T09:23:06.884Z,6.78
2022-10-07T09:25:34.983Z,3.95
2022-10-07T09:28:03.163Z,7.03
2022-10-07T09:30:32.576Z,3.50
2022-10-07T09:33:00.449Z,4.25
2022-10-07T09:35:31.939Z,7.35
2022-10-07T09:38:01.919Z,4.65
2022-10-07T09:40:35.683Z,4.00
2022-10-07T09:43:14.162Z,10.25
2022-10-07T09:45:47.011Z,4.43
2022-10-07T09:48:22.057Z,4.10
2022-10-07T09:50:49.938Z,5.00
2022-10-07T09:53:24.397Z,6.90
2022-10-07T09:55:54.614Z,3.60
2022-10-07T09:58:31.835Z,3.47
2022-10-07T10:01:01.899Z,4.82
2022-10-07T10:03:40.249Z,4.93
2022-10-07T10:06:09.216Z,4.40
2022-10-07T10:08:40.032Z,4.57
2022-10-07T10:11:25.845Z,7.82
2022-10-07T10:13:54.915Z,4.65
2022-10-07T10:16:25.974Z,4.55
2022-10-07T10:19:02.530Z,3.08
2022-10-07T10:21:35.874Z,5.97
2022-10-07T10:24:12.292Z,3.83
2022-10-07T10:26:56.612Z,3.35
2022-10-07T10:29:37.799Z,6.22
2022-10-07T10:32:20.351Z,4.07
2022-10-07T10:35:16.132Z,8.27
2022-10-07T10:38:16.271Z,4.57
2022-10-07T10:41:01.959Z,5.05
2022-10-07T10:43:58.823Z,5.93
2022-10-07T10:46:37.201Z,2.65
2022-10-07T10:49:35.020Z,2.95
2022-10-07T10:52:13.244Z,3.22
2022-10-07T10:55:03.352Z,4.03
2022-10-07T10:57:45.658Z,9.15
2022-10-07T11:00:17.937Z,8.98
2022-10-07T11:02:55.470Z,9.00
2022-10-07T11:05:24.642Z,5.35
2022-10-07T11:08:01.455Z,6.15
2022-10-07T11:10:30.213Z,4.40
2022-10-07T11:13:05.183Z,5.18
2022-10-07T11:15:47.823Z,4.40
2022-10-07T11:18:36.599Z,3.78
2022-10-07T11:21:09.161Z,3.70
2022-10-07T11:23:48.603Z,5.37
2022-10-07T11:26:22.471Z,9.90
2022-10-07T11:28:51.954Z,5.05
2022-10-07T11:31:39.910Z,6.68
2022-10-07T11:34:19.483Z,2.85
2022-10-07T11:36:53.297Z,2.78
2022-10-07T11:39:22.091Z,4.07
2022-10-07T11:42:19.978Z,4.82
2022-10-07T11:45:03.271Z,6.18
2022-10-07T11:47:40.565Z,7.90
2022-10-07T11:50:15.048Z,6.47
2022-10-07T11:52:47.405Z,2.70
2022-10-07T11:55:32.370Z,5.82
2022-10-07T11:58:04.145Z,8.20
2022-10-07T12:00:39.466Z,3.22
2022-10-07T12:03:19.599Z,5.45
2022-10-07T12:05:50.058Z,6.27
2022-10-07T12:10:56.712Z,2.30
2022-10-07T12:13:40.641Z,1.90
2022-10-07T12:16:23.720Z,3.65
2022-10-07T12:19:07.494Z,6.82
2022-10-07T12:22:00.275Z,3.42
2022-10-07T12:24:29.893Z,5.53
2022-10-07T12:27:13.463Z,2.97
2022-10-07T12:30:04.484Z,3.15
2022-10-07T12:32:51.144Z,3.92
2022-10-07T12:35:37.330Z,3.05
2022-10-07T12:38:14.146Z,5.55
2022-10-07T12:40:45.292Z,2.42
2022-10-07T12:43:33.636Z,4.22
2022-10-07T12:46:18.770Z,7.15
2022-10-07T12:49:14.020Z,3.20
2022-10-07T12:51:44.643Z,3.62
2022-10-07T12:54:38.465Z,1.98
2022-10-07T12:57:13.212Z,8.60
2022-10-07T13:00:01.920Z,6.82
2022-10-07T13:02:46.627Z,2.60
2022-10-07T13:05:29.359Z,3.40
2022-10-07T13:08:46.666Z,3.22
2022-10-07T13:11:32.967Z,4.15
2022-10-07T13:14:09.973Z,3.05
2022-10-07T13:17:17.289Z,3.67
2022-10-07T13:20:10.224Z,4.25
2022-10-07T13:22:45.649Z,3.92
2022-10-07T13:25:17.419Z,7.20
2022-10-07T13:27:57.465Z,1.95
2022-10-07T13:30:45.589Z,4.75
2022-10-07T13:33:27.975Z,4.93
2022-10-07T13:36:19.492Z,4.00
2022-10-07T13:38:49.979Z,5.22
2022-10-07T13:41:21.077Z,3.33
2022-10-07T13:46:24.518Z,5.85
2022-10-07T13:48:56.408Z,3.20
2022-10-07T13:51:31.858Z,4.55
2022-10-07T13:54:02.821Z,3.17
2022-10-07T13:56:36.125Z,3.20
2022-10-07T13:59:06.882Z,3.62
2022-10-07T14:04:20.254Z,3.47
2022-10-07T14:07:01.167Z,5.35
2022-10-07T14:09:32.180Z,5.60
2022-10-07T14:12:09.927Z,2.75
2022-10-07T14:14:44.211Z,6.00
2022-10-07T14:17:27.459Z,3.17
2022-10-07T14:20:05.698Z,5.68
2022-10-07T14:22:41.194Z,3.35
2022-10-07T14:25:21.411Z,7.68
2022-10-07T14:27:48.964Z,3.37
2022-10-07T14:30:59.823Z,5.32
2022-10-07T14:34:16.932Z,9.85
2022-10-07T14:37:26.168Z,2.17
2022-10-07T14:42:29.359Z,3.42
2022-10-07T14:44:58.022Z,3.55
2022-10-07T14:47:31.342Z,3.85
2022-10-07T14:50:00.610Z,9.00
2022-10-07T14:52:44.497Z,3.45
2022-10-07T14:55:14.881Z,5.00
2022-10-07T14:57:43.215Z,7.85
2022-10-07T15:00:20.342Z,6.00
2022-10-07T15:02:50.357Z,6.60
2022-10-07T15:05:19.082Z,8.27
2022-10-07T15:07:47.031Z,5.47
2022-10-07T15:10:18.217Z,6.90
2022-10-07T15:15:14.506Z,5.43
2022-10-07T15:17:43.273Z,3.25
2022-10-07T15:20:14.272Z,3.47
